createdAt,value
2019-04-14T00:00:27.257Z,26.07
2019-04-14T00:02:57.734Z,23.37
2019-04-14T00:05:25.677Z,22.33
2019-04-14T00:07:55.912Z,25.90
2019-04-14T00:10:24.676Z,26.13
2019-04-14T00:12:53.587Z,22.47
2019-04-14T00:15:29.425Z,22.33
2019-04-14T00:17:52.550Z,24.43
2019-04-14T00:20:20.721Z,22.23
2019-04-14T00:22:50.950Z,26.67
2019-04-14T00:25:19.480Z,24.77
2019-04-14T00:27:47.578Z,25.47
2019-04-14T00:30:18.763Z,27.80
2019-04-14T00:32:48.810Z,25.57
2019-04-14T00:35:32.074Z,26.27
2019-04-14T00:38:13.559Z,27.37
2019-04-14T00:40:59.039Z,25.40
2019-04-14T00:43:40.321Z,25.77
2019-04-14T00:46:12.800Z,24.57
2019-04-14T00:48:40.959Z,27.27
2019-04-14T00:51:09.255Z,25.90
2019-04-14T00:53:38.196Z,25.10
2019-04-14T00:56:06.228Z,27.13
2019-04-14T00:58:34.317Z,26.00
2019-04-14T01:01:02.657Z,27.13
2019-04-14T01:03:30.977Z,28.03
2019-04-14T01:05:59.025Z,26.83
2019-04-14T01:08:26.968Z,27.33
2019-04-14T01:10:56.379Z,28.57
2019-04-14T01:13:24.635Z,26.60
2019-04-14T01:16:01.882Z,27.03
2019-04-14T01:18:21.361Z,29.70
2019-04-14T01:20:49.239Z,29.30
2019-04-14T01:23:19.340Z,26.97
2019-04-14T01:25:47.735Z,25.20
2019-04-14T01:28:15.832Z,26.33
2019-04-14T01:30:43.881Z,28.17
2019-04-14T01:33:11.904Z,27.20
2019-04-14T01:35:40.438Z,26.33
2019-04-14T01:38:08.010Z,26.53
2019-04-14T01:40:35.925Z,26.23
2019-04-14T01:43:03.905Z,26.33
2019-04-14T01:45:33.804Z,26.87
2019-04-14T01:48:01.701Z,24.60
2019-04-14T01:50:32.441Z,30.33
2019-04-14T01:53:07.556Z,23.43
2019-04-14T01:55:37.349Z,24.33
2019-04-14T01:58:16.409Z,27.10
2019-04-14T02:00:49.268Z,24.90
2019-04-14T02:03:17.129Z,25.90
2019-04-14T02:05:46.039Z,27.23
2019-04-14T02:08:13.526Z,27.63
2019-04-14T02:10:41.244Z,29.10
2019-04-14T02:13:09.296Z,28.07
2019-04-14T02:15:37.424Z,27.00
2019-04-14T02:18:05.635Z,27.50
2019-04-14T02:20:35.938Z,25.40
2019-04-14T02:23:04.053Z,25.93
2019-04-14T02:25:33.893Z,26.57
2019-04-14T02:28:02.222Z,24.20
2019-04-14T02:30:36.226Z,26.37
2019-04-14T02:33:33.530Z,24.93
2019-04-14T02:36:08.226Z,24.53
2019-04-14T02:38:36.074Z,24.80
2019-04-14T02:41:10.664Z,25.07
2019-04-14T02:46:02.078Z,25.27
2019-04-14T02:50:48.143Z,26.67
2019-04-14T02:55:49.109Z,27.70
2019-04-14T02:58:20.183Z,25.97
2019-04-14T03:01:01.848Z,24.73
2019-04-14T03:08:17.047Z,25.77
2019-04-14T03:13:23.096Z,26.00
2019-04-14T03:15:48.254Z,25.27
2019-04-14T03:21:29.921Z,26.33
2019-04-14T03:26:18.254Z,25.97
2019-04-14T03:28:53.359Z,25.17
2019-04-14T03:31:53.987Z,24.97
2019-04-14T03:34:16.914Z,28.03
2019-04-14T03:39:00.335Z,26.93
2019-04-14T03:43:46.404Z,24.77
2019-04-14T03:46:25.411Z,24.27
2019-04-14T03:49:08.167Z,26.33
2019-04-14T03:51:34.060Z,31.07
2019-04-14T03:56:04.284Z,27.50
2019-04-14T03:58:29.296Z,23.97
2019-04-14T04:00:57.525Z,26.53
2019-04-14T04:03:25.972Z,23.47
2019-04-14T04:05:54.163Z,25.27
2019-04-14T04:08:22.443Z,24.67
2019-04-14T04:10:51.660Z,26.60
2019-04-14T04:13:19.434Z,22.73
2019-04-14T04:15:47.681Z,29.43
2019-04-14T04:18:17.768Z,24.13
2019-04-14T04:20:52.564Z,24.60
2019-04-14T04:23:25.120Z,25.00
2019-04-14T04:26:10.702Z,26.77
2019-04-14T04:28:56.699Z,25.27
2019-04-14T04:31:29.139Z,24.70
2019-04-14T04:34:01.115Z,27.17
2019-04-14T04:36:48.802Z,25.87
2019-04-14T04:39:30.189Z,25.83
2019-04-14T04:41:58.000Z,25.20
2019-04-14T04:44:25.460Z,25.40
2019-04-14T04:46:52.772Z,24.80
2019-04-14T04:49:23.049Z,26.50
2019-04-14T04:51:49.293Z,23.73
2019-04-14T04:54:16.841Z,24.97
2019-04-14T04:56:45.599Z,24.70
2019-04-14T04:59:12.980Z,24.97
2019-04-14T05:01:40.779Z,26.17
2019-04-14T05:04:09.032Z,25.67
2019-04-14T05:07:01.696Z,26.40
2019-04-14T05:09:38.791Z,27.43
2019-04-14T05:12:17.508Z,27.50
2019-04-14T05:15:01.401Z,25.57
2019-04-14T05:17:30.564Z,27.37
2019-04-14T05:19:58.426Z,27.73
2019-04-14T05:22:26.783Z,24.60
2019-04-14T05:24:55.023Z,26.73
2019-04-14T05:27:23.305Z,26.20
2019-04-14T05:29:51.570Z,27.47
2019-04-14T05:32:20.133Z,25.80
2019-04-14T05:34:47.921Z,25.13
2019-04-14T05:37:16.060Z,27.97
2019-04-14T05:39:44.046Z,25.43
2019-04-14T05:42:17.804Z,25.20
2019-04-14T05:44:40.460Z,28.50
2019-04-14T05:47:08.670Z,28.57
2019-04-14T05:49:44.213Z,32.40
2019-04-14T05:52:06.012Z,29.40
2019-04-14T05:54:33.969Z,29.27
2019-04-14T05:57:02.219Z,32.37
2019-04-14T05:59:30.751Z,36.93
2019-04-14T06:01:57.939Z,34.50
2019-04-14T06:04:26.356Z,37.13
2019-04-14T06:06:54.653Z,36.03
2019-04-14T06:09:21.973Z,36.47
2019-04-14T06:11:49.215Z,38.30
2019-04-14T06:14:16.333Z,38.63
2019-04-14T06:16:43.473Z,36.53
2019-04-14T06:19:10.593Z,38.85
2019-04-14T06:21:37.693Z,38.43
2019-04-14T06:24:05.032Z,38.23
2019-04-14T06:26:33.213Z,38.53
2019-04-14T06:29:01.868Z,39.20
2019-04-14T06:31:36.813Z,36.03
2019-04-14T06:34:11.593Z,35.43
2019-04-14T06:36:46.395Z,35.27
2019-04-14T06:39:20.193Z,35.20
2019-04-14T06:41:47.513Z,37.20
2019-04-14T06:44:14.673Z,34.70
2019-04-14T06:46:41.893Z,34.33
2019-04-14T06:49:09.073Z,34.07
2019-04-14T06:51:36.473Z,37.80
2019-04-14T06:54:03.672Z,34.00
2019-04-14T06:56:32.152Z,36.70
2019-04-14T06:58:59.392Z,33.23
2019-04-14T07:01:26.553Z,32.63
2019-04-14T07:03:53.652Z,35.77
2019-04-14T07:06:20.791Z,34.17
2019-04-14T07:08:47.916Z,34.03
2019-04-14T07:11:16.453Z,38.33
2019-04-14T07:13:47.830Z,33.90
2019-04-14T07:16:14.092Z,35.53
2019-04-14T07:18:41.392Z,38.83
2019-04-14T07:21:08.613Z,34.57
2019-04-14T07:23:35.755Z,34.10
2019-04-14T07:26:02.832Z,35.13
2019-04-14T07:28:29.962Z,36.33
2019-04-14T07:31:04.833Z,36.57
2019-04-14T07:33:51.783Z,33.97
2019-04-14T07:36:35.473Z,34.83
2019-04-14T07:39:22.152Z,34.13
2019-04-14T07:41:53.691Z,32.63
2019-04-14T07:44:25.337Z,33.33
2019-04-14T07:46:54.233Z,32.33
2019-04-14T07:49:23.214Z,31.93
2019-04-14T07:51:58.612Z,30.90
2019-04-14T07:54:30.453Z,33.47
2019-04-14T07:56:59.993Z,33.83
2019-04-14T07:59:31.953Z,28.37
2019-04-14T08:02:06.674Z,32.40
2019-04-14T08:04:36.052Z,29.43
2019-04-14T08:07:03.513Z,29.00
2019-04-14T08:09:31.624Z,31.03
2019-04-14T08:11:58.965Z,29.87
2019-04-14T08:14:27.066Z,31.27
2019-04-14T08:16:54.167Z,28.47
2019-04-14T08:19:22.487Z,29.00
2019-04-14T08:21:49.684Z,29.13
2019-04-14T08:24:17.105Z,31.07
2019-04-14T08:26:44.286Z,29.93
2019-04-14T08:29:11.441Z,29.67
2019-04-14T08:31:38.938Z,27.77
2019-04-14T08:34:06.100Z,30.30
2019-04-14T08:36:33.424Z,27.43
2019-04-14T08:39:00.604Z,28.20
2019-04-14T08:41:29.478Z,31.97
2019-04-14T08:43:59.625Z,28.20
2019-04-14T08:46:28.656Z,31.77
2019-04-14T08:49:14.369Z,31.23
2019-04-14T08:51:52.732Z,34.23
2019-04-14T08:54:24.788Z,29.20
2019-04-14T08:56:59.731Z,29.93
2019-04-14T08:59:34.868Z,30.37
2019-04-14T09:02:13.434Z,30.50
2019-04-14T09:04:48.754Z,30.70
2019-04-14T09:07:26.479Z,28.13
2019-04-14T09:09:55.612Z,28.60
2019-04-14T09:12:24.718Z,31.87
2019-04-14T09:14:57.150Z,31.27
2019-04-14T09:17:22.085Z,30.50
2019-04-14T09:19:49.334Z,28.40
2019-04-14T09:22:18.025Z,30.23
2019-04-14T09:24:45.460Z,29.33
2019-04-14T09:27:13.374Z,29.40
2019-04-14T09:29:40.698Z,28.97
2019-04-14T09:32:10.917Z,28.90
2019-04-14T09:34:38.356Z,28.57
2019-04-14T09:37:05.541Z,29.77
2019-04-14T09:39:33.688Z,29.90
2019-04-14T09:42:01.812Z,29.40
2019-04-14T09:44:30.455Z,28.80
2019-04-14T09:46:57.819Z,28.70
2019-04-14T09:49:25.015Z,30.17
2019-04-14T09:51:52.215Z,29.33
2019-04-14T09:54:20.821Z,31.57
2019-04-14T09:56:48.019Z,28.77
2019-04-14T09:59:15.480Z,29.33
2019-04-14T10:01:42.731Z,27.07
2019-04-14T10:04:10.339Z,27.63
2019-04-14T10:06:37.725Z,27.20
2019-04-14T10:09:07.972Z,24.70
2019-04-14T10:11:47.640Z,24.53
2019-04-14T10:14:05.425Z,24.83
2019-04-14T10:16:32.894Z,24.73
2019-04-14T10:18:59.993Z,24.27
2019-04-14T10:21:27.718Z,23.20
2019-04-14T10:23:54.856Z,23.20
2019-04-14T10:26:22.410Z,22.50
2019-04-14T10:28:50.863Z,24.53
2019-04-14T10:31:18.658Z,22.53
2019-04-14T10:33:47.363Z,21.90
2019-04-14T10:36:14.401Z,21.87
2019-04-14T10:38:41.730Z,22.10
2019-04-14T10:41:08.916Z,22.47
2019-04-14T10:43:36.873Z,22.97
2019-04-14T10:46:04.252Z,21.33
2019-04-14T10:48:31.566Z,23.43
2019-04-14T10:50:59.345Z,21.47
2019-04-14T10:53:27.464Z,21.60
2019-04-14T10:55:54.745Z,19.80
2019-04-14T10:58:22.265Z,19.47
2019-04-14T11:00:49.708Z,19.20
2019-04-14T11:03:16.832Z,21.87
2019-04-14T11:05:47.152Z,18.10
2019-04-14T11:08:14.493Z,16.70
2019-04-14T11:10:41.652Z,18.43
2019-04-14T11:13:08.992Z,15.43
2019-04-14T11:15:36.151Z,16.83
2019-04-14T11:18:03.392Z,17.60
2019-04-14T11:20:30.851Z,18.37
2019-04-14T11:23:03.613Z,15.70
2019-04-14T11:25:28.371Z,16.53
2019-04-14T11:27:55.671Z,16.97
2019-04-14T11:30:23.951Z,16.93
2019-04-14T11:33:08.113Z,16.47
2019-04-14T11:35:37.194Z,16.63
2019-04-14T11:38:24.771Z,17.67
2019-04-14T11:40:53.712Z,16.93
2019-04-14T11:43:21.184Z,17.20
2019-04-14T11:45:48.313Z,15.97
2019-04-14T11:48:15.441Z,16.97
2019-04-14T11:50:42.637Z,16.43
2019-04-14T11:53:09.807Z,15.00
2019-04-14T11:55:36.952Z,16.90
2019-04-14T11:58:04.142Z,16.93
2019-04-14T12:00:36.352Z,15.53
2019-04-14T12:03:24.061Z,16.07
2019-04-14T12:06:11.232Z,16.50
2019-04-14T12:08:45.895Z,14.53
2019-04-14T12:11:13.051Z,17.30
2019-04-14T12:13:40.252Z,16.07
2019-04-14T12:16:07.312Z,16.33
2019-04-14T12:18:34.493Z,16.10
2019-04-14T12:21:01.812Z,17.73
2019-04-14T12:23:29.011Z,17.73
2019-04-14T12:26:05.313Z,16.63
2019-04-14T12:28:26.377Z,17.87
2019-04-14T12:30:53.877Z,18.00
2019-04-14T12:33:22.377Z,18.03
2019-04-14T12:35:50.379Z,17.33
2019-04-14T12:38:18.518Z,16.70
2019-04-14T12:40:46.001Z,18.93
2019-04-14T12:43:20.983Z,16.93
2019-04-14T12:46:07.038Z,17.13
2019-04-14T12:48:36.337Z,18.73
2019-04-14T12:51:08.364Z,18.07
2019-04-14T12:53:35.737Z,18.83
2019-04-14T12:56:03.117Z,18.83
2019-04-14T12:58:35.242Z,16.63
2019-04-14T13:01:06.873Z,18.77
2019-04-14T13:03:34.462Z,17.60
2019-04-14T13:06:02.022Z,18.37
2019-04-14T13:08:32.395Z,17.17
2019-04-14T13:11:01.786Z,17.17
2019-04-14T13:13:28.933Z,17.83
2019-04-14T13:15:56.151Z,16.47
2019-04-14T13:18:23.415Z,19.40
2019-04-14T13:20:50.650Z,17.07
2019-04-14T13:23:17.801Z,17.37
2019-04-14T13:25:45.141Z,17.00
2019-04-14T13:28:12.420Z,16.40
2019-04-14T13:30:41.311Z,16.83
2019-04-14T13:33:08.658Z,17.67
2019-04-14T13:35:36.233Z,18.47
2019-04-14T13:38:03.844Z,16.70
2019-04-14T13:40:32.961Z,17.73
2019-04-14T13:43:00.087Z,17.63
2019-04-14T13:45:28.180Z,16.40
2019-04-14T13:47:55.454Z,16.50
2019-04-14T13:50:22.740Z,16.13
2019-04-14T13:52:49.846Z,15.23
2019-04-14T13:55:18.619Z,17.60
2019-04-14T13:57:45.787Z,18.20
2019-04-14T14:00:16.598Z,17.40
2019-04-14T14:02:44.018Z,17.73
2019-04-14T14:05:11.137Z,18.03
2019-04-14T14:07:38.745Z,16.83
2019-04-14T14:10:07.396Z,18.73
2019-04-14T14:12:36.457Z,17.13
2019-04-14T14:15:09.268Z,17.07
2019-04-14T14:17:44.376Z,18.00
2019-04-14T14:20:14.011Z,19.80
2019-04-14T14:23:01.915Z,21.53
2019-04-14T14:25:30.896Z,19.20
2019-04-14T14:30:32.981Z,18.27
2019-04-14T14:33:00.394Z,19.83
2019-04-14T14:35:27.835Z,17.57
2019-04-14T14:37:56.067Z,20.17
2019-04-14T14:40:23.520Z,21.73
2019-04-14T14:42:51.054Z,19.03
2019-04-14T14:45:32.054Z,20.80
2019-04-14T14:51:07.183Z,20.43
2019-04-14T14:53:34.311Z,21.93
2019-04-14T14:56:01.618Z,20.87
2019-04-14T14:58:29.094Z,20.13
2019-04-14T15:00:57.234Z,21.43
2019-04-14T15:03:24.609Z,20.20
2019-04-14T15:05:51.731Z,22.87
2019-04-14T15:08:18.962Z,22.47
2019-04-14T15:10:46.125Z,20.93
2019-04-14T15:13:13.682Z,19.43
2019-04-14T15:15:40.837Z,22.10
2019-04-14T15:18:09.218Z,19.27
2019-04-14T15:20:36.622Z,19.27
2019-04-14T15:23:04.324Z,22.90
2019-04-14T15:25:31.854Z,18.00
2019-04-14T15:27:59.029Z,21.00
2019-04-14T15:30:26.131Z,21.00
2019-04-14T15:32:53.913Z,17.87
2019-04-14T15:35:21.085Z,17.13
2019-04-14T15:37:48.444Z,17.60
2019-04-14T15:40:15.804Z,18.63
2019-04-14T15:42:43.944Z,19.97
2019-04-14T15:45:13.843Z,18.27
2019-04-14T15:47:40.464Z,23.87
2019-04-14T15:50:07.925Z,20.43
2019-04-14T15:52:35.164Z,21.10
2019-04-14T15:55:02.952Z,21.67
2019-04-14T15:57:31.863Z,20.13
2019-04-14T16:00:06.307Z,23.87
2019-04-14T16:02:35.299Z,23.00
2019-04-14T16:05:24.364Z,22.50
2019-04-14T16:08:05.524Z,24.10
2019-04-14T16:10:50.672Z,24.07
2019-04-14T16:13:28.513Z,23.87
2019-04-14T16:15:57.392Z,25.90
2019-04-14T16:18:29.393Z,26.10
2019-04-14T16:20:56.604Z,27.00
2019-04-14T16:23:25.042Z,27.03
2019-04-14T16:25:54.085Z,24.33
2019-04-14T16:28:28.845Z,26.70
2019-04-14T16:30:57.945Z,30.70
2019-04-14T16:33:33.068Z,25.63
2019-04-14T16:36:00.287Z,27.77
2019-04-14T16:38:27.484Z,25.10
2019-04-14T16:40:54.665Z,27.57
2019-04-14T16:43:21.828Z,30.73
2019-04-14T16:45:49.123Z,29.43
2019-04-14T16:48:16.246Z,31.20
2019-04-14T16:50:43.568Z,29.77
2019-04-14T16:53:30.608Z,30.60
2019-04-14T16:55:59.623Z,29.10
2019-04-14T16:58:31.066Z,34.23
2019-04-14T17:01:00.013Z,35.70
2019-04-14T17:03:27.285Z,35.27
2019-04-14T17:05:54.866Z,31.37
2019-04-14T17:08:22.065Z,33.27
2019-04-14T17:10:49.207Z,31.70
2019-04-14T17:13:17.306Z,32.30
2019-04-14T17:15:49.169Z,33.63
2019-04-14T17:18:30.044Z,32.50
2019-04-14T17:21:15.566Z,34.13
2019-04-14T17:23:44.671Z,37.03
2019-04-14T17:26:23.214Z,38.60
2019-04-14T17:28:52.152Z,33.10
2019-04-14T17:31:23.605Z,35.23
2019-04-14T17:33:55.046Z,34.50
2019-04-14T17:36:26.840Z,37.60
2019-04-14T17:39:04.686Z,37.37
2019-04-14T17:41:49.989Z,35.00
2019-04-14T17:44:21.946Z,38.27
2019-04-14T17:47:07.224Z,41.90
2019-04-14T17:49:48.092Z,43.20
2019-04-14T17:52:26.167Z,47.07
2019-04-14T17:55:04.367Z,57.70
2019-04-14T17:57:49.768Z,46.63
2019-04-14T18:00:21.327Z,43.27
2019-04-14T18:02:53.323Z,47.00
2019-04-14T18:05:31.237Z,50.13
2019-04-14T18:08:00.218Z,46.83
2019-04-14T18:10:32.278Z,47.37
2019-04-14T18:13:16.417Z,42.67
2019-04-14T18:15:55.101Z,41.27
2019-04-14T18:18:24.278Z,44.20
2019-04-14T18:20:53.746Z,42.27
2019-04-14T18:23:21.081Z,44.10
2019-04-14T18:25:48.298Z,42.57
2019-04-14T18:28:23.477Z,43.70
2019-04-14T18:30:58.697Z,42.77
2019-04-14T18:33:42.817Z,48.00
2019-04-14T18:36:26.838Z,41.60
2019-04-14T18:39:01.758Z,47.33
2019-04-14T18:41:30.898Z,50.87
2019-04-14T18:44:08.689Z,44.57
2019-04-14T18:46:37.697Z,46.90
2019-04-14T18:49:25.328Z,48.30
2019-04-14T18:51:57.318Z,48.73
2019-04-14T18:54:35.367Z,48.73
2019-04-14T18:57:07.250Z,45.07
2019-04-14T18:59:41.994Z,42.67
2019-04-14T19:02:11.047Z,45.80
2019-04-14T19:04:38.487Z,49.20
2019-04-14T19:07:05.814Z,47.60
2019-04-14T19:09:33.067Z,47.73
2019-04-14T19:12:05.067Z,49.53
2019-04-14T19:14:38.273Z,48.13
2019-04-14T19:17:10.588Z,49.43
2019-04-14T19:19:39.627Z,48.43
2019-04-14T19:22:06.807Z,46.47
2019-04-14T19:24:33.949Z,45.73
2019-04-14T19:27:02.127Z,48.07
2019-04-14T19:29:29.269Z,49.90
2019-04-14T19:31:56.303Z,44.57
2019-04-14T19:34:23.428Z,46.67
2019-04-14T19:36:52.047Z,48.50
2019-04-14T19:39:19.748Z,46.60
2019-04-14T19:41:47.131Z,45.93
2019-04-14T19:44:14.387Z,47.73
2019-04-14T19:46:44.110Z,45.93
2019-04-14T19:49:11.448Z,43.70
2019-04-14T19:51:39.832Z,45.53
2019-04-14T19:54:07.828Z,44.93
2019-04-14T19:56:34.948Z,48.33
2019-04-14T19:59:02.113Z,49.17
2019-04-14T20:01:29.590Z,48.43
2019-04-14T20:03:56.891Z,46.80
2019-04-14T20:06:24.671Z,45.27
2019-04-14T20:08:52.108Z,47.30
2019-04-14T20:11:20.368Z,43.13
2019-04-14T20:13:48.192Z,46.53
2019-04-14T20:16:23.031Z,47.27
2019-04-14T20:19:10.540Z,49.10
2019-04-14T20:21:44.331Z,44.83
2019-04-14T20:24:13.651Z,44.03
2019-04-14T20:26:59.157Z,45.93
2019-04-14T20:29:28.196Z,48.73
2019-04-14T20:32:00.058Z,47.10
2019-04-14T20:34:27.309Z,50.13
2019-04-14T20:36:55.798Z,50.37
2019-04-14T20:39:23.765Z,49.53
2019-04-14T20:41:51.419Z,46.37
2019-04-14T20:44:18.978Z,47.33
2019-04-14T20:46:47.479Z,47.07
2019-04-14T20:49:14.621Z,48.13
2019-04-14T20:51:42.037Z,50.63
2019-04-14T20:54:09.417Z,50.17
2019-04-14T20:56:36.585Z,45.73
2019-04-14T20:59:03.695Z,44.03
2019-04-14T21:01:32.798Z,46.77
2019-04-14T21:04:01.917Z,45.33
2019-04-14T21:06:43.180Z,44.90
2019-04-14T21:09:29.078Z,45.60
2019-04-14T21:12:03.577Z,44.50
2019-04-14T21:14:33.217Z,45.50
2019-04-14T21:17:18.658Z,44.30
2019-04-14T21:19:50.637Z,46.13
2019-04-14T21:22:36.331Z,49.33
2019-04-14T21:25:07.385Z,48.33
2019-04-14T21:27:39.417Z,48.27
2019-04-14T21:30:15.379Z,45.20
2019-04-14T21:32:53.707Z,44.33
2019-04-14T21:35:31.477Z,44.67
2019-04-14T21:38:00.478Z,46.20
2019-04-14T21:40:32.897Z,45.07
2019-04-14T21:43:01.558Z,46.70
2019-04-14T21:45:28.978Z,43.97
2019-04-14T21:47:56.137Z,46.13
2019-04-14T21:50:23.484Z,44.23
2019-04-14T21:52:50.695Z,46.63
2019-04-14T21:55:17.903Z,45.07
2019-04-14T21:57:50.771Z,42.03
2019-04-14T22:00:36.084Z,43.80
2019-04-14T22:03:11.884Z,43.40
2019-04-14T22:05:44.584Z,45.17
2019-04-14T22:08:13.576Z,43.47
2019-04-14T22:10:50.643Z,45.70
2019-04-14T22:13:17.804Z,46.27
2019-04-14T22:15:45.043Z,42.90
2019-04-14T22:18:13.020Z,44.80
2019-04-14T22:20:41.611Z,46.63
2019-04-14T22:23:11.394Z,46.40
2019-04-14T22:25:40.111Z,50.63
2019-04-14T22:28:07.543Z,46.93
2019-04-14T22:30:35.426Z,44.40
2019-04-14T22:33:03.504Z,47.20
2019-04-14T22:36:11.383Z,47.67
2019-04-14T22:38:38.723Z,52.87
2019-04-14T22:41:06.003Z,50.37
2019-04-14T22:43:33.443Z,56.83
2019-04-14T22:46:02.256Z,54.33
2019-04-14T22:48:29.792Z,56.10
2019-04-14T22:50:57.631Z,56.73
2019-04-14T22:53:24.823Z,55.43
2019-04-14T22:55:52.162Z,55.57
2019-04-14T22:58:19.423Z,54.90
2019-04-14T23:00:51.263Z,53.13
2019-04-14T23:03:29.103Z,51.40
2019-04-14T23:06:16.023Z,50.17
2019-04-14T23:08:48.043Z,50.10
2019-04-14T23:11:23.404Z,56.87
2019-04-14T23:14:08.863Z,46.43
2019-04-14T23:16:54.962Z,53.20
2019-04-14T23:19:30.407Z,48.63
2019-04-14T23:21:59.405Z,51.43
2019-04-14T23:24:28.583Z,55.23
2019-04-14T23:26:56.264Z,52.83
2019-04-14T23:29:23.601Z,52.50
2019-04-14T23:31:50.963Z,59.30
2019-04-14T23:34:18.227Z,57.33
2019-04-14T23:36:46.683Z,56.30
2019-04-14T23:39:13.807Z,58.50
2019-04-14T23:41:41.210Z,56.83
2019-04-14T23:44:08.283Z,52.73
2019-04-14T23:46:35.708Z,53.27
2019-04-14T23:49:03.662Z,55.87
2019-04-14T23:51:30.900Z,60.80
2019-04-14T23:54:00.302Z,54.70
2019-04-14T23:56:27.624Z,55.70
2019-04-14T23:58:55.483Z,55.70
